sensor_id;sensor_type;location;lat;lon;timestamp;pressure;altitude;pressure_sealevel;temperature;humidity
73306;BME280;61530;51.158;0.880;2022-09-09T00:00:20;1000.16;;;15.5625;54.8182
73306;BME280;61530;51.158;0.880;2022-09-09T00:01:31;1000.11;;;15.5625;56.2805
73306;BME280;61530;51.158;0.880;2022-09-09T00:02:21;1000.09;;;15.5625;56.1013
73306;BME280;61530;51.158;0.880;2022-09-09T00:03:25;1000.06;;;15.5625;55.7525
73306;BME280;61530;51.158;0.880;2022-09-09T00:04:26;1000.05;;;15.5625;55.7087
73306;BME280;61530;51.158;0.880;2022-09-09T00:05:29;1000.0;;;15.5625;55.9872
73306;BME280;61530;51.158;0.880;2022-09-09T00:06:26;1000.04;;;15.625;55.8233
73306;BME280;61530;51.158;0.880;2022-09-09T00:07:28;1000.01;;;15.5625;55.7858
73306;BME280;61530;51.158;0.880;2022-09-09T00:08:29;1000.04;;;15.5625;56.7057
73306;BME280;61530;51.158;0.880;2022-09-09T00:09:28;1000.06;;;15.625;55.6248
73306;BME280;61530;51.158;0.880;2022-09-09T00:10:28;1000.05;;;15.5625;55.6477
73306;BME280;61530;51.158;0.880;2022-09-09T00:11:29;1000.07;;;15.5625;55.4444
73306;BME280;61530;51.158;0.880;2022-09-09T00:12:32;1000.1;;;15.625;56.1165
73306;BME280;61530;51.158;0.880;2022-09-09T00:13:30;1000.05;;;15.5625;55.2125
73306;BME280;61530;51.158;0.880;2022-09-09T00:14:35;1000.03;;;15.625;54.9982
73306;BME280;61530;51.158;0.880;2022-09-09T00:15:30;1000.01;;;15.5625;56.3075
73306;BME280;61530;51.158;0.880;2022-09-09T00:16:28;1000.03;;;15.625;56.6923
73306;BME280;61530;51.158;0.880;2022-09-09T00:17:34;1000.01;;;15.625;55.5295
73306;BME280;61530;51.158;0.880;2022-09-09T00:18:33;999.99;;;15.5625;55.2991
73306;BME280;61530;51.158;0.880;2022-09-09T00:19:36;1000.02;;;15.625;56.0446
73306;BME280;61530;51.158;0.880;2022-09-09T00:20:34;999.952;;;15.625;56.0054
73306;BME280;61530;51.158;0.880;2022-09-09T00:21:34;999.913;;;15.625;55.5936
73306;BME280;61530;51.158;0.880;2022-09-09T00:22:30;999.922;;;15.625;55.5725
73306;BME280;61530;51.158;0.880;2022-09-09T00:23:33;999.945;;;15.625;54.737
73306;BME280;61530;51.158;0.880;2022-09-09T00:24:36;999.921;;;15.6875;55.0683
73306;BME280;61530;51.158;0.880;2022-09-09T00:25:37;999.918;;;15.75;54.7904
73306;BME280;61530;51.158;0.880;2022-09-09T00:26:38;999.904;;;15.75;54.4547
73306;BME280;61530;51.158;0.880;2022-09-09T00:27:36;999.914;;;15.6875;54.1473
73306;BME280;61530;51.158;0.880;2022-09-09T00:28:39;999.858;;;15.6875;54.1373
73306;BME280;61530;51.158;0.880;2022-09-09T00:29:39;999.843;;;15.625;54.6513
73306;BME280;61530;51.158;0.880;2022-09-09T00:30:35;999.839;;;15.6875;55.1375
73306;BME280;61530;51.158;0.880;2022-09-09T00:31:36;999.846;;;15.625;54.4623
73306;BME280;61530;51.158;0.880;2022-09-09T00:32:36;999.862;;;15.625;54.048
73306;BME280;61530;51.158;0.880;2022-09-09T00:33:36;999.862;;;15.625;54.0725
73306;BME280;61530;51.158;0.880;2022-09-09T00:34:39;999.895;;;15.625;54.0503
73306;BME280;61530;51.158;0.880;2022-09-09T00:35:40;999.905;;;15.625;54.0197
73306;BME280;61530;51.158;0.880;2022-09-09T00:36:39;999.888;;;15.75;55.1147
73306;BME280;61530;51.158;0.880;2022-09-09T00:37:38;999.891;;;15.6875;54.3861
73306;BME280;61530;51.158;0.880;2022-09-09T00:38:42;999.889;;;15.625;54.1514
73306;BME280;61530;51.158;0.880;2022-09-09T00:39:42;999.88;;;15.6875;53.8251
73306;BME280;61530;51.158;0.880;2022-09-09T00:40:49;999.871;;;15.75;54.5039
73306;BME280;61530;51.158;0.880;2022-09-09T00:41:49;999.846;;;15.6875;54.3893
73306;BME280;61530;51.158;0.880;2022-09-09T00:42:42;999.806;;;15.75;54.2534
73306;BME280;61530;51.158;0.880;2022-09-09T00:43:55;999.793;;;15.75;53.8192
73306;BME280;61530;51.158;0.880;2022-09-09T00:45:02;999.743;;;15.75;54.9407
73306;BME280;61530;51.158;0.880;2022-09-09T00:46:14;999.736;;;15.75;55.8869
73306;BME280;61530;51.158;0.880;2022-09-09T00:47:04;999.729;;;15.75;54.6011
73306;BME280;61530;51.158;0.880;2022-09-09T00:47:54;999.719;;;15.6875;53.805
73306;BME280;61530;51.158;0.880;2022-09-09T00:49:01;999.677;;;15.8125;53.7121
73306;BME280;61530;51.158;0.880;2022-09-09T00:50:00;999.652;;;15.8125;53.2716
73306;BME280;61530;51.158;0.880;2022-09-09T00:50:57;999.658;;;15.8125;54.094
73306;BME280;61530;51.158;0.880;2022-09-09T00:52:03;999.64;;;15.8125;53.5497
73306;BME280;61530;51.158;0.880;2022-09-09T00:53:05;999.641;;;15.8125;54.9555
73306;BME280;61530;51.158;0.880;2022-09-09T00:54:12;999.646;;;15.8125;53.7925
73306;BME280;61530;51.158;0.880;2022-09-09T00:55:07;999.668;;;15.8125;54.2357
73306;BME280;61530;51.158;0.880;2022-09-09T00:56:08;999.696;;;15.8125;53.7697
73306;BME280;61530;51.158;0.880;2022-09-09T00:57:10;999.689;;;15.8125;53.707
73306;BME280;61530;51.158;0.880;2022-09-09T00:57:59;999.644;;;15.8125;53.8692
73306;BME280;61530;51.158;0.880;2022-09-09T00:59:08;999.603;;;15.875;54.3073
73306;BME280;61530;51.158;0.880;2022-09-09T01:00:21;999.582;;;15.75;53.9194
73306;BME280;61530;51.158;0.880;2022-09-09T01:01:06;999.57;;;15.8125;53.7562
73306;BME280;61530;51.158;0.880;2022-09-09T01:02:19;999.523;;;15.8125;54.3078
73306;BME280;61530;51.158;0.880;2022-09-09T01:03:17;999.51;;;15.875;52.8217
73306;BME280;61530;51.158;0.880;2022-09-09T01:04:10;999.508;;;15.875;53.317
73306;BME280;61530;51.158;0.880;2022-09-09T01:05:10;999.477;;;15.875;54.2564
73306;BME280;61530;51.158;0.880;2022-09-09T01:06:14;999.469;;;15.875;53.9272
73306;BME280;61530;51.158;0.880;2022-09-09T01:07:15;999.389;;;15.9375;53.3521
73306;BME280;61530;51.158;0.880;2022-09-09T01:08:16;999.389;;;15.8125;53.1848
73306;BME280;61530;51.158;0.880;2022-09-09T01:09:15;999.446;;;15.8125;53.3105
73306;BME280;61530;51.158;0.880;2022-09-09T01:10:14;999.428;;;15.875;53.0054
73306;BME280;61530;51.158;0.880;2022-09-09T01:11:13;999.421;;;15.875;53.9959
73306;BME280;61530;51.158;0.880;2022-09-09T01:12:15;999.438;;;15.9375;53.1257
73306;BME280;61530;51.158;0.880;2022-09-09T01:13:17;999.43;;;15.875;53.1192
73306;BME280;61530;51.158;0.880;2022-09-09T01:14:22;999.402;;;15.9375;54.0504
73306;BME280;61530;51.158;0.880;2022-09-09T01:15:15;999.406;;;15.875;53.028
73306;BME280;61530;51.158;0.880;2022-09-09T01:16:12;999.379;;;15.9375;52.6054
73306;BME280;61530;51.158;0.880;2022-09-09T01:17:17;999.365;;;15.875;53.329
73306;BME280;61530;51.158;0.880;2022-09-09T01:18:15;999.333;;;15.875;53.7688
73306;BME280;61530;51.158;0.880;2022-09-09T01:19:22;999.331;;;15.875;53.6284
73306;BME280;61530;51.158;0.880;2022-09-09T01:20:19;999.319;;;15.9375;54.8498
73306;BME280;61530;51.158;0.880;2022-09-09T01:21:22;999.281;;;15.9375;54.2599
73306;BME280;61530;51.158;0.880;2022-09-09T01:22:24;999.261;;;15.875;53.5838
73306;BME280;61530;51.158;0.880;2022-09-09T01:23:35;999.211;;;15.75;54.4878
73306;BME280;61530;51.158;0.880;2022-09-09T01:24:24;999.175;;;15.75;54.2232
73306;BME280;61530;51.158;0.880;2022-09-09T01:25:26;999.191;;;15.75;54.5137
73306;BME280;61530;51.158;0.880;2022-09-09T01:26:22;999.2;;;15.75;54.625
73306;BME280;61530;51.158;0.880;2022-09-09T01:27:24;999.21;;;15.75;53.8895
73306;BME280;61530;51.158;0.880;2022-09-09T01:28:30;999.229;;;15.8125;54.1558
73306;BME280;61530;51.158;0.880;2022-09-09T01:29:30;999.201;;;15.75;53.9242
73306;BME280;61530;51.158;0.880;2022-09-09T01:30:31;999.184;;;15.8125;54.2072
73306;BME280;61530;51.158;0.880;2022-09-09T01:31:34;999.159;;;15.8125;54.2335
73306;BME280;61530;51.158;0.880;2022-09-09T01:32:42;999.165;;;15.75;54.1592
73306;BME280;61530;51.158;0.880;2022-09-09T01:33:32;999.154;;;15.75;53.931
73306;BME280;61530;51.158;0.880;2022-09-09T01:34:37;999.145;;;15.75;54.6537
73306;BME280;61530;51.158;0.880;2022-09-09T01:35:41;999.099;;;15.8125;53.447
73306;BME280;61530;51.158;0.880;2022-09-09T01:36:39;999.117;;;15.75;55.0275
73306;BME280;61530;51.158;0.880;2022-09-09T01:37:33;999.121;;;15.8125;53.8851
73306;BME280;61530;51.158;0.880;2022-09-09T01:38:35;999.09;;;15.8125;54.1957
73306;BME280;61530;51.158;0.880;2022-09-09T01:39:36;999.099;;;15.8125;54.6357
73306;BME280;61530;51.158;0.880;2022-09-09T01:40:36;999.099;;;15.75;54.463
73306;BME280;61530;51.158;0.880;2022-09-09T01:41:36;999.114;;;15.75;54.2589
73306;BME280;61530;51.158;0.880;2022-09-09T01:42:36;999.132;;;15.8125;54.6503
73306;BME280;61530;51.158;0.880;2022-09-09T01:43:37;999.108;;;15.75;53.9053
73306;BME280;61530;51.158;0.880;2022-09-09T01:44:38;999.079;;;15.6875;53.9545
73306;BME280;61530;51.158;0.880;2022-09-09T01:45:44;999.061;;;15.75;54.3805
73306;BME280;61530;51.158;0.880;2022-09-09T01:46:49;999.023;;;15.8125;53.6333
73306;BME280;61530;51.158;0.880;2022-09-09T01:47:50;999.027;;;15.75;53.6843
73306;BME280;61530;51.158;0.880;2022-09-09T01:48:51;999.002;;;15.75;52.8384
73306;BME280;61530;51.158;0.880;2022-09-09T01:49:50;999.01;;;15.8125;54.1952
73306;BME280;61530;51.158;0.880;2022-09-09T01:50:52;998.98;;;15.75;54.2786
73306;BME280;61530;51.158;0.880;2022-09-09T01:51:54;998.953;;;15.8125;52.7585
73306;BME280;61530;51.158;0.880;2022-09-09T01:52:56;998.935;;;15.75;52.8988
73306;BME280;61530;51.158;0.880;2022-09-09T01:53:53;998.92;;;15.8125;53.4928
73306;BME280;61530;51.158;0.880;2022-09-09T01:54:53;998.912;;;15.75;52.9223
73306;BME280;61530;51.158;0.880;2022-09-09T01:56:02;998.929;;;15.8125;52.6039
73306;BME280;61530;51.158;0.880;2022-09-09T01:57:05;998.897;;;15.8125;53.2082
73306;BME280;61530;51.158;0.880;2022-09-09T01:58:08;998.885;;;15.75;53.0886
73306;BME280;61530;51.158;0.880;2022-09-09T01:59:05;998.887;;;15.8125;53.6403
73306;BME280;61530;51.158;0.880;2022-09-09T02:00:03;998.835;;;15.8125;53.1715
73306;BME280;61530;51.158;0.880;2022-09-09T02:01:06;998.84;;;15.875;53.286
73306;BME280;61530;51.158;0.880;2022-09-09T02:02:09;998.853;;;15.8125;53.4857
73306;BME280;61530;51.158;0.880;2022-09-09T02:03:12;998.852;;;15.875;53.1357
73306;BME280;61530;51.158;0.880;2022-09-09T02:04:11;998.883;;;15.875;54.4168
73306;BME280;61530;51.158;0.880;2022-09-09T02:05:15;998.893;;;15.8125;53.8256
73306;BME280;61530;51.158;0.880;2022-09-09T02:06:13;998.878;;;15.8125;53.1096
73306;BME280;61530;51.158;0.880;2022-09-09T02:07:15;998.864;;;15.875;54.2534
73306;BME280;61530;51.158;0.880;2022-09-09T02:08:08;998.857;;;15.875;53.5622
73306;BME280;61530;51.158;0.880;2022-09-09T02:09:07;998.804;;;15.8125;53.8438
73306;BME280;61530;51.158;0.880;2022-09-09T02:10:10;998.814;;;15.8125;53.2151
73306;BME280;61530;51.158;0.880;2022-09-09T02:11:11;998.779;;;15.875;54.2503
73306;BME280;61530;51.158;0.880;2022-09-09T02:12:12;998.777;;;15.875;53.236
73306;BME280;61530;51.158;0.880;2022-09-09T02:13:10;998.749;;;15.8125;53.1338
73306;BME280;61530;51.158;0.880;2022-09-09T02:14:13;998.697;;;15.875;53.4989
73306;BME280;61530;51.158;0.880;2022-09-09T02:15:20;998.67;;;15.8125;54.6889
73306;BME280;61530;51.158;0.880;2022-09-09T02:16:24;998.65;;;15.875;52.9613
73306;BME280;61530;51.158;0.880;2022-09-09T02:17:30;998.678;;;15.875;53.4901
73306;BME280;61530;51.158;0.880;2022-09-09T02:18:35;998.701;;;15.8125;53.7791
73306;BME280;61530;51.158;0.880;2022-09-09T02:19:37;998.711;;;15.8125;53.6638
73306;BME280;61530;51.158;0.880;2022-09-09T02:20:33;998.679;;;15.8125;54.2515
73306;BME280;61530;51.158;0.880;2022-09-09T02:21:34;998.666;;;15.875;54.1371
73306;BME280;61530;51.158;0.880;2022-09-09T02:22:37;998.71;;;15.75;53.1173
73306;BME280;61530;51.158;0.880;2022-09-09T02:23:36;998.773;;;15.875;53.1708
73306;BME280;61530;51.158;0.880;2022-09-09T02:24:37;998.79;;;15.8125;54.3108
73306;BME280;61530;51.158;0.880;2022-09-09T02:25:37;998.845;;;15.8125;53.6424
73306;BME280;61530;51.158;0.880;2022-09-09T02:26:40;998.865;;;15.875;52.9059
73306;BME280;61530;51.158;0.880;2022-09-09T02:27:36;998.859;;;15.8125;53.8782
73306;BME280;61530;51.158;0.880;2022-09-09T02:28:38;998.877;;;15.8125;54.1448
73306;BME280;61530;51.158;0.880;2022-09-09T02:29:40;998.891;;;15.8125;53.6584
73306;BME280;61530;51.158;0.880;2022-09-09T02:30:40;998.867;;;15.8125;52.6034
73306;BME280;61530;51.158;0.880;2022-09-09T02:31:40;998.877;;;15.8125;54.1286
73306;BME280;61530;51.158;0.880;2022-09-09T02:32:42;998.891;;;15.8125;52.9365
73306;BME280;61530;51.158;0.880;2022-09-09T02:33:50;998.897;;;15.8125;53.4627
73306;BME280;61530;51.158;0.880;2022-09-09T02:34:49;998.909;;;15.8125;53.3525
73306;BME280;61530;51.158;0.880;2022-09-09T02:35:47;998.933;;;15.875;53.516
73306;BME280;61530;51.158;0.880;2022-09-09T02:36:47;998.976;;;15.875;53.7553
73306;BME280;61530;51.158;0.880;2022-09-09T02:37:47;998.982;;;15.875;53.4333
73306;BME280;61530;51.158;0.880;2022-09-09T02:38:48;999.029;;;15.875;53.5996
73306;BME280;61530;51.158;0.880;2022-09-09T02:39:48;999.016;;;15.8125;53.9146
73306;BME280;61530;51.158;0.880;2022-09-09T02:40:49;999.035;;;15.8125;54.1622
73306;BME280;61530;51.158;0.880;2022-09-09T02:41:55;999.03;;;15.875;53.2139
73306;BME280;61530;51.158;0.880;2022-09-09T02:42:55;999.074;;;15.75;52.6847
73306;BME280;61530;51.158;0.880;2022-09-09T02:43:56;999.083;;;15.8125;53.2629
73306;BME280;61530;51.158;0.880;2022-09-09T02:44:56;999.112;;;15.875;53.2589
73306;BME280;61530;51.158;0.880;2022-09-09T02:46:03;999.101;;;15.875;53.1027
73306;BME280;61530;51.158;0.880;2022-09-09T02:47:11;999.117;;;15.8125;52.6746
73306;BME280;61530;51.158;0.880;2022-09-09T02:48:05;999.081;;;15.875;53.4248
73306;BME280;61530;51.158;0.880;2022-09-09T02:49:01;999.063;;;15.8125;54.0658
73306;BME280;61530;51.158;0.880;2022-09-09T02:50:07;999.035;;;15.875;52.3158
73306;BME280;61530;51.158;0.880;2022-09-09T02:51:06;999.029;;;15.8125;53.0463
73306;BME280;61530;51.158;0.880;2022-09-09T02:52:02;999.01;;;15.875;52.1762
73306;BME280;61530;51.158;0.880;2022-09-09T02:53:07;998.989;;;15.875;52.8868
73306;BME280;61530;51.158;0.880;2022-09-09T02:54:08;998.968;;;15.8125;52.5047
73306;BME280;61530;51.158;0.880;2022-09-09T02:55:08;998.996;;;15.875;53.7463
73306;BME280;61530;51.158;0.880;2022-09-09T02:56:05;998.974;;;15.9375;53.6381
73306;BME280;61530;51.158;0.880;2022-09-09T02:57:06;998.985;;;15.875;52.7982
73306;BME280;61530;51.158;0.880;2022-09-09T02:58:05;999.013;;;15.9375;53.8241
73306;BME280;61530;51.158;0.880;2022-09-09T02:59:04;999.016;;;15.875;53.3669
73306;BME280;61530;51.158;0.880;2022-09-09T03:00:04;998.979;;;15.8125;53.3389
73306;BME280;61530;51.158;0.880;2022-09-09T03:01:04;998.978;;;15.875;52.9367
73306;BME280;61530;51.158;0.880;2022-09-09T03:02:05;998.999;;;15.875;54.2918
73306;BME280;61530;51.158;0.880;2022-09-09T03:03:06;998.982;;;15.875;52.6953
73306;BME280;61530;51.158;0.880;2022-09-09T03:04:06;998.962;;;15.875;52.3591
73306;BME280;61530;51.158;0.880;2022-09-09T03:05:07;998.966;;;15.8125;53.9044
73306;BME280;61530;51.158;0.880;2022-09-09T03:06:06;998.956;;;15.875;54.042
73306;BME280;61530;51.158;0.880;2022-09-09T03:07:08;998.963;;;15.9375;53.017
73306;BME280;61530;51.158;0.880;2022-09-09T03:08:07;998.986;;;15.9375;53.2726
73306;BME280;61530;51.158;0.880;2022-09-09T03:09:08;999.003;;;15.875;53.4805
73306;BME280;61530;51.158;0.880;2022-09-09T03:10:09;998.99;;;15.9375;52.5139
73306;BME280;61530;51.158;0.880;2022-09-09T03:11:09;998.996;;;15.875;52.9619
73306;BME280;61530;51.158;0.880;2022-09-09T03:12:10;998.999;;;15.9375;53.9645
73306;BME280;61530;51.158;0.880;2022-09-09T03:13:10;999.012;;;15.875;52.6481
73306;BME280;61530;51.158;0.880;2022-09-09T03:14:10;998.991;;;15.875;52.6548
73306;BME280;61530;51.158;0.880;2022-09-09T03:15:12;998.999;;;15.875;52.2139
73306;BME280;61530;51.158;0.880;2022-09-09T03:16:17;998.989;;;15.875;53.0338
73306;BME280;61530;51.158;0.880;2022-09-09T03:17:23;998.984;;;15.875;52.8732
73306;BME280;61530;51.158;0.880;2022-09-09T03:18:24;999.039;;;15.8125;53.2414
73306;BME280;61530;51.158;0.880;2022-09-09T03:19:24;999.067;;;15.8125;52.7692
73306;BME280;61530;51.158;0.880;2022-09-09T03:20:25;999.084;;;15.8125;52.3869
73306;BME280;61530;51.158;0.880;2022-09-09T03:21:25;999.096;;;15.875;52.4708
73306;BME280;61530;51.158;0.880;2022-09-09T03:22:25;999.106;;;15.875;53.2961
73306;BME280;61530;51.158;0.880;2022-09-09T03:23:27;999.081;;;15.8125;53.9358
73306;BME280;61530;51.158;0.880;2022-09-09T03:24:33;999.103;;;15.8125;53.1872
73306;BME280;61530;51.158;0.880;2022-09-09T03:25:38;999.104;;;15.8125;52.1341
73306;BME280;61530;51.158;0.880;2022-09-09T03:26:38;999.104;;;15.8125;52.2826
73306;BME280;61530;51.158;0.880;2022-09-09T03:27:39;999.112;;;15.8125;52.8024
73306;BME280;61530;51.158;0.880;2022-09-09T03:28:39;999.102;;;15.8125;51.5349
73306;BME280;61530;51.158;0.880;2022-09-09T03:29:40;999.093;;;15.8125;53.0671
73306;BME280;61530;51.158;0.880;2022-09-09T03:30:41;999.126;;;15.8125;52.592
73306;BME280;61530;51.158;0.880;2022-09-09T03:31:42;999.123;;;15.8125;53.5212
73306;BME280;61530;51.158;0.880;2022-09-09T03:32:47;999.112;;;15.8125;52.8427
73306;BME280;61530;51.158;0.880;2022-09-09T03:33:48;999.137;;;15.8125;53.713
73306;BME280;61530;51.158;0.880;2022-09-09T03:34:48;999.118;;;15.8125;53.6622
73306;BME280;61530;51.158;0.880;2022-09-09T03:35:48;999.13;;;15.875;53.1865
73306;BME280;61530;51.158;0.880;2022-09-09T03:36:49;999.127;;;15.875;53.4137
73306;BME280;61530;51.158;0.880;2022-09-09T03:37:49;999.095;;;15.875;53.248
73306;BME280;61530;51.158;0.880;2022-09-09T03:38:50;999.064;;;15.875;52.172
73306;BME280;61530;51.158;0.880;2022-09-09T03:39:50;999.043;;;15.8125;52.0214
73306;BME280;61530;51.158;0.880;2022-09-09T03:40:52;999.052;;;15.8125;53.2759
73306;BME280;61530;51.158;0.880;2022-09-09T03:41:51;999.037;;;15.875;52.1521
73306;BME280;61530;51.158;0.880;2022-09-09T03:42:52;999.058;;;15.875;53.4428
73306;BME280;61530;51.158;0.880;2022-09-09T03:43:53;999.037;;;15.8125;53.8513
73306;BME280;61530;51.158;0.880;2022-09-09T03:44:54;999.033;;;15.8125;53.1971
73306;BME280;61530;51.158;0.880;2022-09-09T03:45:59;999.053;;;15.875;53.1828
73306;BME280;61530;51.158;0.880;2022-09-09T03:46:59;999.018;;;15.875;53.2141
73306;BME280;61530;51.158;0.880;2022-09-09T03:48:00;999.041;;;15.875;53.4749
73306;BME280;61530;51.158;0.880;2022-09-09T03:49:00;999.039;;;15.8125;52.9106
73306;BME280;61530;51.158;0.880;2022-09-09T03:50:02;999.02;;;15.8125;53.2008
73306;BME280;61530;51.158;0.880;2022-09-09T03:51:02;998.998;;;15.875;54.0146
73306;BME280;61530;51.158;0.880;2022-09-09T03:52:03;999.009;;;15.875;52.8807
73306;BME280;61530;51.158;0.880;2022-09-09T03:53:03;999.016;;;15.9375;53.3253
73306;BME280;61530;51.158;0.880;2022-09-09T03:54:04;999.03;;;15.875;52.1232
73306;BME280;61530;51.158;0.880;2022-09-09T03:55:05;999.08;;;15.9375;52.5377
73306;BME280;61530;51.158;0.880;2022-09-09T03:56:05;999.138;;;15.875;52.5969
73306;BME280;61530;51.158;0.880;2022-09-09T03:57:05;999.127;;;15.9375;53.3545
73306;BME280;61530;51.158;0.880;2022-09-09T03:58:06;999.135;;;15.875;52.3968
73306;BME280;61530;51.158;0.880;2022-09-09T03:59:11;999.121;;;15.875;52.0062
73306;BME280;61530;51.158;0.880;2022-09-09T04:00:18;999.089;;;15.8125;53.4698
73306;BME280;61530;51.158;0.880;2022-09-09T04:01:24;999.104;;;15.8125;52.571
73306;BME280;61530;51.158;0.880;2022-09-09T04:02:29;999.105;;;15.875;53.4565
73306;BME280;61530;51.158;0.880;2022-09-09T04:03:35;999.121;;;15.875;52.741
73306;BME280;61530;51.158;0.880;2022-09-09T04:04:35;999.148;;;15.875;51.5534
73306;BME280;61530;51.158;0.880;2022-09-09T04:05:36;999.138;;;15.875;52.4984
73306;BME280;61530;51.158;0.880;2022-09-09T04:06:36;999.131;;;15.875;53.471
73306;BME280;61530;51.158;0.880;2022-09-09T04:07:37;999.141;;;15.8125;53.8294
73306;BME280;61530;51.158;0.880;2022-09-09T04:08:37;999.144;;;15.875;53.8422
73306;BME280;61530;51.158;0.880;2022-09-09T04:09:38;999.096;;;15.875;53.5259
73306;BME280;61530;51.158;0.880;2022-09-09T04:10:45;999.072;;;15.8125;52.2893
73306;BME280;61530;51.158;0.880;2022-09-09T04:11:44;999.067;;;15.875;53.9619
73306;BME280;61530;51.158;0.880;2022-09-09T04:12:45;999.04;;;15.875;52.4306
73306;BME280;61530;51.158;0.880;2022-09-09T04:13:45;999.019;;;15.875;52.3712
73306;BME280;61530;51.158;0.880;2022-09-09T04:14:46;999.016;;;15.8125;52.7695
73306;BME280;61530;51.158;0.880;2022-09-09T04:15:51;999.02;;;15.875;52.0381
73306;BME280;61530;51.158;0.880;2022-09-09T04:16:47;999.011;;;15.8125;52.6104
73306;BME280;61530;51.158;0.880;2022-09-09T04:17:48;999.038;;;15.8125;53.2204
73306;BME280;61530;51.158;0.880;2022-09-09T04:18:54;999.03;;;15.875;52.424
73306;BME280;61530;51.158;0.880;2022-09-09T04:19:54;999.037;;;15.875;52.4059
73306;BME280;61530;51.158;0.880;2022-09-09T04:20:55;999.059;;;15.875;53.0047
73306;BME280;61530;51.158;0.880;2022-09-09T04:21:55;999.037;;;15.8125;53.295
73306;BME280;61530;51.158;0.880;2022-09-09T04:22:56;999.006;;;15.8125;52.5443
73306;BME280;61530;51.158;0.880;2022-09-09T04:23:56;999.045;;;15.8125;53.1155
73306;BME280;61530;51.158;0.880;2022-09-09T04:24:57;999.065;;;15.8125;52.8548
73306;BME280;61530;51.158;0.880;2022-09-09T04:25:58;999.05;;;15.8125;53.8443
73306;BME280;61530;51.158;0.880;2022-09-09T04:26:58;999.022;;;15.875;52.9343
73306;BME280;61530;51.158;0.880;2022-09-09T04:27:58;999.029;;;15.8125;53.4556
73306;BME280;61530;51.158;0.880;2022-09-09T04:28:59;999.028;;;15.75;54.0624
73306;BME280;61530;51.158;0.880;2022-09-09T04:30:02;999.039;;;15.8125;53.2106
73306;BME280;61530;51.158;0.880;2022-09-09T04:31:06;999.057;;;15.75;51.4733
73306;BME280;61530;51.158;0.880;2022-09-09T04:32:08;999.049;;;15.8125;53.3678
73306;BME280;61530;51.158;0.880;2022-09-09T04:33:09;999.067;;;15.8125;53.7747
73306;BME280;61530;51.158;0.880;2022-09-09T04:34:11;999.079;;;15.75;53.5237
73306;BME280;61530;51.158;0.880;2022-09-09T04:35:11;999.081;;;15.8125;53.927
73306;BME280;61530;51.158;0.880;2022-09-09T04:36:13;999.093;;;15.875;52.2443
73306;BME280;61530;51.158;0.880;2022-09-09T04:37:12;999.076;;;15.875;52.7888
73306;BME280;61530;51.158;0.880;2022-09-09T04:38:13;999.09;;;15.75;52.4993
73306;BME280;61530;51.158;0.880;2022-09-09T04:39:13;999.101;;;15.8125;53.7432
73306;BME280;61530;51.158;0.880;2022-09-09T04:40:14;999.091;;;15.8125;53.3386
73306;BME280;61530;51.158;0.880;2022-09-09T04:41:15;999.105;;;15.8125;53.0514
73306;BME280;61530;51.158;0.880;2022-09-09T04:42:15;999.091;;;15.8125;53.4353
73306;BME280;61530;51.158;0.880;2022-09-09T04:43:15;999.075;;;15.875;53.9311
73306;BME280;61530;51.158;0.880;2022-09-09T04:44:16;999.079;;;15.8125;53.4172
73306;BME280;61530;51.158;0.880;2022-09-09T04:45:22;999.104;;;15.8125;54.1215
73306;BME280;61530;51.158;0.880;2022-09-09T04:46:22;999.115;;;15.8125;53.7718
73306;BME280;61530;51.158;0.880;2022-09-09T04:47:23;999.098;;;15.8125;53.2126
73306;BME280;61530;51.158;0.880;2022-09-09T04:48:23;999.12;;;15.8125;53.3299
73306;BME280;61530;51.158;0.880;2022-09-09T04:49:24;999.09;;;15.8125;53.6587
73306;BME280;61530;51.158;0.880;2022-09-09T04:50:24;999.086;;;15.8125;52.962
73306;BME280;61530;51.158;0.880;2022-09-09T04:51:25;999.077;;;15.875;53.6324
73306;BME280;61530;51.158;0.880;2022-09-09T04:52:25;999.1;;;15.8125;52.9181
73306;BME280;61530;51.158;0.880;2022-09-09T04:53:26;999.139;;;15.8125;51.8029
73306;BME280;61530;51.158;0.880;2022-09-09T04:54:26;999.17;;;15.8125;53.3179
73306;BME280;61530;51.158;0.880;2022-09-09T04:55:27;999.206;;;15.8125;52.6051
73306;BME280;61530;51.158;0.880;2022-09-09T04:56:27;999.198;;;15.8125;52.375
73306;BME280;61530;51.158;0.880;2022-09-09T04:57:28;999.239;;;15.8125;52.8033
73306;BME280;61530;51.158;0.880;2022-09-09T04:58:34;999.268;;;15.875;53.0987
73306;BME280;61530;51.158;0.880;2022-09-09T04:59:34;999.313;;;15.8125;53.1147
73306;BME280;61530;51.158;0.880;2022-09-09T05:00:36;999.297;;;15.875;52.7759
73306;BME280;61530;51.158;0.880;2022-09-09T05:01:35;999.276;;;15.8125;52.5302
73306;BME280;61530;51.158;0.880;2022-09-09T05:02:37;999.297;;;15.8125;52.2878
73306;BME280;61530;51.158;0.880;2022-09-09T05:03:36;999.287;;;15.75;53.3049
73306;BME280;61530;51.158;0.880;2022-09-09T05:04:37;999.315;;;15.8125;52.6313
73306;BME280;61530;51.158;0.880;2022-09-09T05:05:37;999.33;;;15.75;53.2251
73306;BME280;61530;51.158;0.880;2022-09-09T05:06:38;999.343;;;15.75;53.462
73306;BME280;61530;51.158;0.880;2022-09-09T05:07:38;999.391;;;15.6875;53.1502
73306;BME280;61530;51.158;0.880;2022-09-09T05:08:40;999.39;;;15.6875;53.5862
73306;BME280;61530;51.158;0.880;2022-09-09T05:09:39;999.4;;;15.75;53.3999
73306;BME280;61530;51.158;0.880;2022-09-09T05:10:40;999.405;;;15.6875;54.0065
73306;BME280;61530;51.158;0.880;2022-09-09T05:11:46;999.428;;;15.6875;53.735
73306;BME280;61530;51.158;0.880;2022-09-09T05:12:52;999.45;;;15.75;53.4505
73306;BME280;61530;51.158;0.880;2022-09-09T05:13:47;999.487;;;15.6875;53.4218